Alanreed, Texas
Current Conditions -  °F | °C
As of 5:35 PM on Monday 20 Oct 2014 (Local Time) from KPPA Reporting Station
Clear Clear  
Wind Chill: 25°   Ceiling: Unl
Heat Index: 26°   Visibility: 10mi
Dew Point: 10°   Wind: 5mph
Humidity: 38%   Direction: 60°ENE
Pressure: 30.07"   Gusts: NA
Location:  35.21°N, 100.74°W
Report Text: KPPA 202235Z AUTO 06004KT 10SM CLR 25/10 A3007 RMK AO2 T02490096 PNO
Loading
Personal Weather Stations






























Interactive Weather Map
Tropical Storm Tracking
New forecast layout! Learn more

10-Day Weather Forecast

Advertisements
Track Severe Weather on mobile